Airport View

Enter AWOS ICAO identifier for current METAR.

ex. KFNL

KDUG 212256Z AUTO 18018G24KT 10SM CLR 26/16 A3001 RMK AO2 SLP099 T02560156 $

21 Sep 2019 23:25

Frequency: 119.275

Phone: 520-364-7208

Other Area AWOS: KFHU - KOLS - KLSB - KDMA

TAF KDUG 211739Z 2118/2218 VRB03KT P6SM FEW040 SCT060 FM212000 19009KT P6SM SCT040 BKN060 OVC120 FM212300 17010KT P6SM VCSH BKN040 OVC100 FM220300 09006KT P6SM BKN060 OVC180 FM221500 13005KT P6SM VCSH BKN040 OVC100